createdAt,value
2022-09-22T00:00:01.882Z,9.90
2022-09-22T00:01:06.247Z,9.90
2022-09-22T00:02:10.560Z,9.89
2022-09-22T00:03:14.789Z,9.88
2022-09-22T00:04:19.099Z,9.88
2022-09-22T00:05:23.385Z,9.87
2022-09-22T00:06:27.706Z,9.89
2022-09-22T00:07:31.898Z,9.92
2022-09-22T00:08:36.239Z,9.91
2022-09-22T00:09:40.415Z,9.86
2022-09-22T00:10:44.780Z,9.84
2022-09-22T00:11:48.963Z,9.82
2022-09-22T00:12:53.319Z,9.79
2022-09-22T00:13:57.605Z,9.77
2022-09-22T00:15:01.843Z,9.77
2022-09-22T00:16:06.119Z,9.75
2022-09-22T00:17:10.396Z,9.75
2022-09-22T00:18:14.713Z,9.76
2022-09-22T00:19:19.089Z,9.75
2022-09-22T00:20:23.250Z,9.73
2022-09-22T00:21:27.501Z,9.74
2022-09-22T00:22:31.770Z,9.75
2022-09-22T00:23:36.024Z,9.75
2022-09-22T00:24:40.377Z,9.76
2022-09-22T00:25:44.686Z,9.79
2022-09-22T00:26:48.877Z,9.81
2022-09-22T00:27:53.210Z,9.84
2022-09-22T00:28:57.508Z,9.83
2022-09-22T00:30:01.675Z,9.82
2022-09-22T00:31:06.002Z,9.83
2022-09-22T00:32:10.162Z,9.82
2022-09-22T00:33:14.452Z,9.81
2022-09-22T00:34:18.717Z,9.79
2022-09-22T00:35:23.028Z,9.78
2022-09-22T00:36:27.317Z,9.77
2022-09-22T00:37:31.516Z,9.74
2022-09-22T00:38:35.873Z,9.71
2022-09-22T00:39:40.179Z,9.67
2022-09-22T00:40:44.442Z,9.61
2022-09-22T00:41:48.569Z,9.57
2022-09-22T00:42:52.907Z,9.53
2022-09-22T00:43:57.178Z,9.53
2022-09-22T00:45:01.500Z,9.53
2022-09-22T00:46:05.759Z,9.54
2022-09-22T00:47:09.961Z,9.55
2022-09-22T00:48:14.234Z,9.57
2022-09-22T00:49:18.556Z,9.59
2022-09-22T00:50:22.792Z,9.58
2022-09-22T00:51:27.137Z,9.57
2022-09-22T00:52:31.423Z,9.57
2022-09-22T00:53:35.865Z,9.57
2022-09-22T00:54:40.073Z,9.55
2022-09-22T00:55:44.370Z,9.54
2022-09-22T00:56:48.582Z,9.51
2022-09-22T00:57:52.842Z,9.47
2022-09-22T00:58:57.297Z,9.42
2022-09-22T01:00:01.565Z,9.36
2022-09-22T01:01:05.939Z,9.33
2022-09-22T01:02:10.193Z,9.32
2022-09-22T01:03:14.526Z,9.31
2022-09-22T01:04:18.793Z,9.29
2022-09-22T01:05:23.061Z,9.31
2022-09-22T01:06:27.335Z,9.33
2022-09-22T01:07:31.546Z,9.35
2022-09-22T01:08:35.893Z,9.37
2022-09-22T01:09:40.294Z,9.39
2022-09-22T01:10:44.529Z,9.41
2022-09-22T01:11:48.918Z,9.42
2022-09-22T01:12:53.173Z,9.44
2022-09-22T01:13:57.438Z,9.44
2022-09-22T01:15:01.717Z,9.45
2022-09-22T01:16:05.967Z,9.44
2022-09-22T01:17:10.344Z,9.44
2022-09-22T01:18:14.602Z,9.44
2022-09-22T01:19:18.783Z,9.45
2022-09-22T01:20:22.985Z,9.45
2022-09-22T01:21:27.321Z,9.47
2022-09-22T01:22:31.631Z,9.48
2022-09-22T01:23:35.763Z,9.47
2022-09-22T01:24:40.056Z,9.48
2022-09-22T01:25:44.321Z,9.50
2022-09-22T01:26:48.759Z,9.51
2022-09-22T01:27:53.030Z,9.53
2022-09-22T01:28:57.309Z,9.53
2022-09-22T01:30:01.611Z,9.54
2022-09-22T01:31:06.076Z,9.48
2022-09-22T01:32:10.213Z,9.42
2022-09-22T01:33:14.522Z,9.37
2022-09-22T01:34:21.858Z,9.32
2022-09-22T01:35:25.292Z,9.24
2022-09-22T01:36:29.514Z,9.14
2022-09-22T01:37:33.738Z,9.07
2022-09-22T01:38:37.973Z,9.03
2022-09-22T01:39:42.170Z,9.02
2022-09-22T01:40:46.564Z,9.00
2022-09-22T01:41:50.760Z,8.97
2022-09-22T01:42:54.984Z,8.92
2022-09-22T01:43:59.322Z,8.87
2022-09-22T01:45:03.621Z,8.84
2022-09-22T01:46:07.843Z,8.83
2022-09-22T01:47:12.024Z,8.81
2022-09-22T01:48:16.290Z,8.80
2022-09-22T01:49:20.597Z,8.77
2022-09-22T01:50:24.906Z,8.71
2022-09-22T01:51:29.036Z,8.67
2022-09-22T01:52:33.278Z,8.65
2022-09-22T01:53:37.606Z,8.64
2022-09-22T01:54:41.809Z,8.63
2022-09-22T01:55:46.115Z,8.63
2022-09-22T01:56:50.368Z,8.62
2022-09-22T01:57:54.649Z,8.59
2022-09-22T01:58:58.935Z,8.56
2022-09-22T02:00:03.212Z,8.53
2022-09-22T02:01:12.170Z,8.51
2022-09-22T02:02:11.901Z,8.46
2022-09-22T02:03:15.987Z,8.43
2022-09-22T02:04:20.256Z,8.43
2022-09-22T02:05:24.520Z,8.44
2022-09-22T02:06:28.806Z,8.45
2022-09-22T02:07:32.931Z,8.47
2022-09-22T02:08:37.154Z,8.49
2022-09-22T02:09:41.431Z,8.49
2022-09-22T02:10:45.587Z,8.47
2022-09-22T02:11:49.919Z,8.45
2022-09-22T02:12:54.174Z,8.43
2022-09-22T02:13:58.417Z,8.42
2022-09-22T02:15:02.676Z,8.41
2022-09-22T02:16:07.072Z,8.42
2022-09-22T02:17:11.152Z,8.43
2022-09-22T02:18:15.328Z,8.43
2022-09-22T02:19:19.538Z,8.43
2022-09-22T02:20:23.864Z,8.44
2022-09-22T02:21:28.134Z,8.45
2022-09-22T02:22:32.520Z,8.46
2022-09-22T02:23:36.701Z,8.46
2022-09-22T02:24:40.929Z,8.47
2022-09-22T02:25:45.174Z,8.47
2022-09-22T02:26:49.413Z,8.48
2022-09-22T02:27:53.646Z,8.49
2022-09-22T02:28:58.007Z,8.50
2022-09-22T02:30:02.236Z,8.51
2022-09-22T02:31:21.364Z,8.51
2022-09-22T02:32:10.737Z,8.52
2022-09-22T02:33:14.948Z,8.53
2022-09-22T02:34:19.246Z,8.54
2022-09-22T02:35:23.561Z,8.55
2022-09-22T02:36:27.681Z,8.55
2022-09-22T02:37:32.014Z,8.56
2022-09-22T02:38:36.335Z,8.57
2022-09-22T02:39:40.593Z,8.59
2022-09-22T02:40:44.979Z,8.61
2022-09-22T02:41:49.107Z,8.63
2022-09-22T02:42:53.360Z,8.65
2022-09-22T02:43:57.621Z,8.68
2022-09-22T02:45:01.805Z,8.70
2022-09-22T02:46:06.183Z,8.71
2022-09-22T02:47:10.395Z,8.72
2022-09-22T02:48:14.697Z,8.72
2022-09-22T02:49:18.865Z,8.71
2022-09-22T02:50:23.220Z,8.71
2022-09-22T02:51:27.467Z,8.70
2022-09-22T02:52:31.728Z,8.68
2022-09-22T02:53:36.009Z,8.67
2022-09-22T02:54:40.280Z,8.69
2022-09-22T02:55:44.517Z,8.68
2022-09-22T02:56:48.772Z,8.67
2022-09-22T02:57:53.065Z,8.66
2022-09-22T02:58:58.560Z,8.67
2022-09-22T03:00:01.609Z,8.68
2022-09-22T03:01:05.955Z,8.68
2022-09-22T03:02:10.156Z,8.69
2022-09-22T03:03:14.333Z,8.68
2022-09-22T03:04:18.768Z,8.68
2022-09-22T03:05:22.921Z,8.68
2022-09-22T03:06:27.271Z,8.66
2022-09-22T03:07:31.505Z,8.62
2022-09-22T03:08:35.767Z,8.60
2022-09-22T03:09:40.009Z,8.60
2022-09-22T03:10:44.293Z,8.60
2022-09-22T03:11:48.518Z,8.57
2022-09-22T03:13:15.027Z,8.56
2022-09-22T03:13:57.038Z,8.55
2022-09-22T03:15:01.282Z,8.56
2022-09-22T03:16:05.513Z,8.56
2022-09-22T03:17:09.794Z,8.59
2022-09-22T03:18:14.065Z,8.61
2022-09-22T03:19:18.310Z,8.62
2022-09-22T03:20:22.485Z,8.62
2022-09-22T03:21:26.780Z,8.60
2022-09-22T03:22:31.039Z,8.59
2022-09-22T03:23:35.303Z,8.59
2022-09-22T03:24:42.607Z,8.60
2022-09-22T03:25:46.039Z,8.59
2022-09-22T03:26:50.270Z,8.59
2022-09-22T03:27:54.493Z,8.60
2022-09-22T03:28:58.778Z,8.61
2022-09-22T03:30:03.037Z,8.61
2022-09-22T03:31:07.284Z,8.59
2022-09-22T03:32:11.505Z,8.57
2022-09-22T03:33:15.570Z,8.56
2022-09-22T03:34:19.934Z,8.53
2022-09-22T03:35:24.095Z,8.53
2022-09-22T03:36:28.498Z,8.55
2022-09-22T03:37:32.719Z,8.56
2022-09-22T03:38:36.951Z,8.56
2022-09-22T03:39:41.305Z,8.55
2022-09-22T03:40:45.598Z,8.53
2022-09-22T03:41:49.665Z,8.50
2022-09-22T03:42:54.001Z,8.46
2022-09-22T03:43:58.256Z,8.41
2022-09-22T03:45:02.587Z,8.35
2022-09-22T03:46:06.900Z,8.31
2022-09-22T03:47:11.074Z,8.31
2022-09-22T03:48:15.380Z,8.32
2022-09-22T03:49:19.608Z,8.32
2022-09-22T03:50:23.895Z,8.32
2022-09-22T03:51:28.161Z,8.31
2022-09-22T03:52:32.235Z,8.31
2022-09-22T03:53:36.733Z,8.30
2022-09-22T03:54:41.047Z,8.25
2022-09-22T03:55:45.284Z,8.22
2022-09-22T03:56:49.553Z,8.20
2022-09-22T03:57:53.831Z,8.18
2022-09-22T03:58:58.196Z,8.15
2022-09-22T04:00:02.404Z,8.13
2022-09-22T04:01:06.711Z,8.12
2022-09-22T04:02:10.875Z,8.10
2022-09-22T04:03:15.184Z,8.08
2022-09-22T04:04:19.481Z,8.07
2022-09-22T04:05:23.586Z,8.05
2022-09-22T04:06:27.904Z,8.03
2022-09-22T04:07:32.241Z,8.01
2022-09-22T04:08:36.453Z,7.99
2022-09-22T04:09:40.784Z,7.97
2022-09-22T04:10:47.969Z,7.94
2022-09-22T04:11:51.181Z,7.92
2022-09-22T04:12:55.376Z,7.90
2022-09-22T04:13:59.707Z,7.89
2022-09-22T04:15:03.888Z,7.88
2022-09-22T04:16:08.157Z,7.88
2022-09-22T04:17:12.440Z,7.89
2022-09-22T04:18:16.697Z,7.90
2022-09-22T04:19:20.959Z,7.92
2022-09-22T04:20:25.138Z,7.94
2022-09-22T04:21:29.405Z,7.95
2022-09-22T04:22:33.546Z,7.94
2022-09-22T04:23:37.763Z,7.92
2022-09-22T04:24:42.178Z,7.92
2022-09-22T04:25:46.291Z,7.93
2022-09-22T04:27:15.168Z,7.95
2022-09-22T04:27:54.858Z,7.96
2022-09-22T04:28:59.126Z,7.98
2022-09-22T04:30:03.378Z,7.98
2022-09-22T04:31:07.637Z,7.98
2022-09-22T04:32:11.831Z,7.97
2022-09-22T04:33:16.086Z,7.96
2022-09-22T04:34:20.443Z,7.97
2022-09-22T04:35:24.644Z,7.97
2022-09-22T04:36:28.905Z,7.98
2022-09-22T04:37:33.182Z,7.98
2022-09-22T04:38:37.440Z,7.99
2022-09-22T04:39:41.681Z,8.01
2022-09-22T04:40:46.150Z,8.04
2022-09-22T04:41:50.206Z,8.06
2022-09-22T04:42:54.382Z,8.06
2022-09-22T04:43:58.671Z,8.05
2022-09-22T04:45:02.916Z,8.03
2022-09-22T04:46:07.271Z,8.02
2022-09-22T04:47:11.466Z,8.01
2022-09-22T04:48:15.709Z,8.01
2022-09-22T04:49:19.978Z,8.01
2022-09-22T04:50:24.319Z,8.03
2022-09-22T04:51:28.546Z,8.06
2022-09-22T04:52:32.632Z,8.10
2022-09-22T04:53:37.067Z,8.12
2022-09-22T04:54:41.308Z,8.15
2022-09-22T04:55:45.596Z,8.18
2022-09-22T04:56:49.925Z,8.22
2022-09-22T04:57:54.115Z,8.24
2022-09-22T04:58:58.196Z,8.26
2022-09-22T05:00:02.569Z,8.27
2022-09-22T05:01:06.922Z,8.27
2022-09-22T05:02:10.938Z,8.28
2022-09-22T05:03:19.896Z,8.30
2022-09-22T05:04:19.657Z,8.33
2022-09-22T05:05:23.813Z,8.37
2022-09-22T05:06:28.124Z,8.41
2022-09-22T05:07:32.389Z,8.44
2022-09-22T05:08:36.707Z,8.46
2022-09-22T05:09:40.968Z,8.48
2022-09-22T05:10:45.240Z,8.50
2022-09-22T05:11:49.495Z,8.52
2022-09-22T05:12:53.764Z,8.53
2022-09-22T05:13:57.993Z,8.55
2022-09-22T05:15:02.253Z,8.56
2022-09-22T05:16:06.579Z,8.56
2022-09-22T05:17:10.901Z,8.57
2022-09-22T05:18:15.165Z,8.57
2022-09-22T05:19:19.416Z,8.57
2022-09-22T05:20:23.702Z,8.57
2022-09-22T05:21:27.935Z,8.58
2022-09-22T05:22:36.373Z,8.59
2022-09-22T05:23:36.527Z,8.60
2022-09-22T05:24:40.767Z,8.61
2022-09-22T05:25:45.075Z,8.63
2022-09-22T05:26:49.368Z,8.64
2022-09-22T05:27:53.685Z,8.64
2022-09-22T05:28:57.929Z,8.61
2022-09-22T05:30:02.255Z,8.58
2022-09-22T05:31:06.285Z,8.54
2022-09-22T05:32:10.689Z,8.50
2022-09-22T05:33:14.971Z,8.46
2022-09-22T05:34:19.161Z,8.43
2022-09-22T05:35:23.469Z,8.41
2022-09-22T05:36:27.759Z,8.40
2022-09-22T05:37:32.034Z,8.39
2022-09-22T05:38:36.352Z,8.38
2022-09-22T05:39:40.611Z,8.38
2022-09-22T05:40:45.092Z,8.39
2022-09-22T05:41:49.165Z,8.40
2022-09-22T05:42:53.323Z,8.42
2022-09-22T05:43:57.727Z,8.44
2022-09-22T05:45:02.026Z,8.47
2022-09-22T05:46:06.308Z,8.49
2022-09-22T05:47:10.522Z,8.52
2022-09-22T05:48:14.798Z,8.55
2022-09-22T05:49:18.871Z,8.58
2022-09-22T05:50:23.301Z,8.63
2022-09-22T05:51:27.533Z,8.66
2022-09-22T05:52:31.801Z,8.71
2022-09-22T05:53:36.045Z,8.75
2022-09-22T05:54:40.182Z,8.79
2022-09-22T05:55:44.322Z,8.82
2022-09-22T05:56:48.728Z,8.86
2022-09-22T05:57:53.026Z,8.90
2022-09-22T05:58:57.248Z,8.94
2022-09-22T06:00:01.568Z,8.98
2022-09-22T06:01:05.937Z,9.03
2022-09-22T06:02:25.141Z,9.06
2022-09-22T06:03:14.612Z,9.09
2022-09-22T06:04:18.696Z,9.12
2022-09-22T06:05:22.850Z,9.18
2022-09-22T06:06:27.247Z,9.23
2022-09-22T06:07:31.286Z,9.31
2022-09-22T06:08:35.585Z,9.38
2022-09-22T06:09:39.932Z,9.43
2022-09-22T06:10:44.105Z,9.46
2022-09-22T06:11:48.424Z,9.49
2022-09-22T06:12:52.671Z,9.54
2022-09-22T06:13:57.063Z,9.59
2022-09-22T06:15:01.389Z,9.65
2022-09-22T06:16:05.661Z,9.72
2022-09-22T06:17:09.905Z,9.80
2022-09-22T06:18:15.293Z,9.87
2022-09-22T06:19:18.353Z,9.95
2022-09-22T06:20:22.704Z,10.04
2022-09-22T06:21:26.985Z,10.12
2022-09-22T06:22:31.333Z,10.19
2022-09-22T06:23:39.368Z,10.27
2022-09-22T06:24:39.816Z,10.36
2022-09-22T06:25:44.112Z,10.44
2022-09-22T06:26:48.404Z,10.52
2022-09-22T06:27:52.691Z,10.61
2022-09-22T06:28:57.003Z,10.68
2022-09-22T06:30:01.416Z,10.76
2022-09-22T06:31:05.643Z,10.83
2022-09-22T06:32:09.939Z,10.89
2022-09-22T06:33:14.248Z,10.93
2022-09-22T06:34:18.515Z,10.95
2022-09-22T06:35:22.838Z,10.96
2022-09-22T06:36:27.203Z,10.97
2022-09-22T06:37:31.533Z,10.98
2022-09-22T06:38:35.817Z,10.99
2022-09-22T06:39:40.048Z,11.00
2022-09-22T06:40:44.362Z,11.01
2022-09-22T06:41:48.681Z,11.01
2022-09-22T06:42:52.905Z,11.02
2022-09-22T06:43:57.334Z,11.02
2022-09-22T06:45:01.584Z,11.03
2022-09-22T06:46:05.900Z,11.05
2022-09-22T06:47:10.130Z,11.06
2022-09-22T06:48:14.392Z,11.07
2022-09-22T06:49:18.592Z,11.08
2022-09-22T06:50:23.038Z,11.10
2022-09-22T06:51:27.298Z,11.12
2022-09-22T06:52:31.741Z,11.14
2022-09-22T06:53:35.877Z,11.18
2022-09-22T06:54:40.121Z,11.21
2022-09-22T06:55:44.371Z,11.24
2022-09-22T06:56:48.630Z,11.27
2022-09-22T06:57:52.966Z,11.29
2022-09-22T06:59:10.250Z,11.30
2022-09-22T07:00:01.482Z,11.31
2022-09-22T07:01:09.715Z,11.30
2022-09-22T07:02:10.224Z,11.28
2022-09-22T07:03:14.315Z,11.23
2022-09-22T07:04:18.655Z,11.19
2022-09-22T07:05:23.057Z,11.15
2022-09-22T07:06:27.430Z,11.13
2022-09-22T07:07:31.730Z,11.14
2022-09-22T07:08:36.007Z,11.17
2022-09-22T07:09:40.195Z,11.21
2022-09-22T07:10:44.564Z,11.25
2022-09-22T07:11:48.819Z,11.30
2022-09-22T07:12:53.127Z,11.35
2022-09-22T07:13:57.531Z,11.40
2022-09-22T07:15:01.761Z,11.44
2022-09-22T07:16:06.064Z,11.48
2022-09-22T07:17:10.298Z,11.52
2022-09-22T07:18:14.632Z,11.56
2022-09-22T07:19:18.853Z,11.60
2022-09-22T07:20:23.318Z,11.65
2022-09-22T07:21:27.491Z,11.69
2022-09-22T07:22:31.821Z,11.74
2022-09-22T07:23:36.125Z,11.78
2022-09-22T07:24:40.528Z,11.83
2022-09-22T07:25:44.899Z,11.88
2022-09-22T07:26:49.170Z,11.92
2022-09-22T07:27:53.460Z,11.95
2022-09-22T07:28:57.636Z,11.96
2022-09-22T07:30:02.080Z,11.98
2022-09-22T07:31:06.550Z,12.01
2022-09-22T07:32:10.845Z,12.05
2022-09-22T07:33:14.997Z,12.12
2022-09-22T07:34:19.293Z,12.18
2022-09-22T07:35:23.596Z,12.23
2022-09-22T07:36:27.872Z,12.28
2022-09-22T07:37:32.272Z,12.31
2022-09-22T07:38:36.585Z,12.36
2022-09-22T07:39:40.912Z,12.40
2022-09-22T07:40:45.362Z,12.45
2022-09-22T07:41:49.631Z,12.48
2022-09-22T07:42:53.876Z,12.53
2022-09-22T07:43:58.248Z,12.57
2022-09-22T07:45:02.599Z,12.61
2022-09-22T07:46:06.836Z,12.65
2022-09-22T07:47:11.253Z,12.68
2022-09-22T07:48:15.596Z,12.71
2022-09-22T07:49:19.876Z,12.73
2022-09-22T07:50:24.216Z,12.76
2022-09-22T07:51:28.537Z,12.80
2022-09-22T07:52:32.847Z,12.84
2022-09-22T07:53:37.180Z,12.88
2022-09-22T07:54:41.518Z,12.91
2022-09-22T07:55:45.875Z,12.94
2022-09-22T07:56:50.155Z,12.97
2022-09-22T07:57:54.486Z,13.00
2022-09-22T07:58:58.905Z,13.03
2022-09-22T08:00:03.085Z,13.06
2022-09-22T08:01:07.547Z,13.09
2022-09-22T08:02:11.864Z,13.12
2022-09-22T08:03:16.140Z,13.14
2022-09-22T08:04:20.511Z,13.18
2022-09-22T08:05:24.789Z,13.22
2022-09-22T08:06:29.123Z,13.26
2022-09-22T08:07:33.382Z,13.30
2022-09-22T08:08:37.714Z,13.33
2022-09-22T08:09:42.006Z,13.36
2022-09-22T08:10:46.231Z,13.39
2022-09-22T08:11:50.701Z,13.37
2022-09-22T08:12:55.098Z,13.37
2022-09-22T08:13:59.448Z,13.40
2022-09-22T08:15:03.830Z,13.42
2022-09-22T08:16:08.019Z,13.41
2022-09-22T08:17:12.465Z,13.34
2022-09-22T08:18:16.830Z,13.36
2022-09-22T08:19:20.936Z,13.39
2022-09-22T08:20:25.341Z,13.40
2022-09-22T08:21:29.655Z,13.41
2022-09-22T08:22:33.938Z,13.44
2022-09-22T08:23:38.275Z,13.48
2022-09-22T08:24:42.700Z,13.50
2022-09-22T08:25:46.994Z,13.44
2022-09-22T08:26:51.436Z,13.46
2022-09-22T08:27:55.799Z,13.48
2022-09-22T08:29:00.086Z,13.51
2022-09-22T08:30:04.382Z,13.57
2022-09-22T08:31:08.879Z,13.58
2022-09-22T08:32:13.063Z,13.59
2022-09-22T08:33:17.387Z,13.61
2022-09-22T08:34:21.692Z,13.63
2022-09-22T08:35:26.055Z,13.62
2022-09-22T08:36:30.405Z,13.59
2022-09-22T08:37:34.726Z,13.58
2022-09-22T08:38:39.054Z,13.56
2022-09-22T08:39:43.363Z,13.50
2022-09-22T08:40:47.763Z,13.48
2022-09-22T08:41:51.991Z,13.44
2022-09-22T08:42:56.124Z,13.41
2022-09-22T08:44:00.544Z,13.38
2022-09-22T08:45:04.708Z,13.36
2022-09-22T08:46:09.206Z,13.31
2022-09-22T08:47:13.556Z,13.25
2022-09-22T08:48:17.826Z,13.28
2022-09-22T08:49:22.257Z,13.28
2022-09-22T08:50:26.535Z,13.30
2022-09-22T08:51:30.852Z,13.33
2022-09-22T08:52:35.041Z,13.28
2022-09-22T08:53:39.409Z,13.30
2022-09-22T08:54:43.746Z,13.33
2022-09-22T08:55:47.952Z,13.28
2022-09-22T08:56:52.221Z,13.29
2022-09-22T08:57:56.605Z,13.29
2022-09-22T08:59:01.042Z,13.32
2022-09-22T09:00:05.449Z,13.36
2022-09-22T09:01:09.729Z,13.43
2022-09-22T09:02:14.074Z,13.48
2022-09-22T09:03:18.431Z,13.47
2022-09-22T09:04:22.764Z,13.43
2022-09-22T09:05:27.115Z,13.44
2022-09-22T09:06:31.521Z,13.45
2022-09-22T09:07:35.782Z,13.47
2022-09-22T09:08:40.099Z,13.46
2022-09-22T09:09:44.417Z,13.43
2022-09-22T09:10:48.767Z,13.48
2022-09-22T09:11:53.079Z,13.35
2022-09-22T09:12:57.426Z,13.26
2022-09-22T09:14:01.716Z,13.31
2022-09-22T09:15:05.855Z,13.37
2022-09-22T09:16:10.317Z,13.43
2022-09-22T09:17:14.579Z,13.48
2022-09-22T09:18:19.001Z,13.51
2022-09-22T09:19:23.383Z,13.50
2022-09-22T09:20:27.649Z,13.53
2022-09-22T09:21:31.780Z,13.54
2022-09-22T09:22:36.074Z,13.48
2022-09-22T09:25:49.104Z,13.50
2022-09-22T09:26:53.460Z,13.50
2022-09-22T09:27:57.698Z,13.42
2022-09-22T09:29:03.992Z,12.93
2022-09-22T09:30:06.371Z,13.04
2022-09-22T09:31:10.809Z,13.14
2022-09-22T09:32:15.123Z,13.18
2022-09-22T09:33:19.471Z,13.25
2022-09-22T09:34:23.821Z,13.29
2022-09-22T09:35:28.229Z,13.24
2022-09-22T09:36:32.498Z,13.33
2022-09-22T09:37:36.850Z,13.29
2022-09-22T09:38:41.291Z,13.19
2022-09-22T09:39:45.560Z,13.15
2022-09-22T09:40:49.907Z,13.23
2022-09-22T09:41:54.241Z,13.31
2022-09-22T09:42:58.501Z,13.18
2022-09-22T09:44:02.989Z,13.12
2022-09-22T09:45:07.303Z,13.27
2022-09-22T09:46:11.801Z,13.30
2022-09-22T09:47:16.104Z,13.40
2022-09-22T09:48:20.409Z,13.43
2022-09-22T09:49:24.863Z,13.39
2022-09-22T09:50:29.142Z,13.36
2022-09-22T09:51:39.552Z,13.44
2022-09-22T09:52:37.883Z,13.52
2022-09-22T09:53:42.326Z,13.52
2022-09-22T09:54:46.645Z,13.47
2022-09-22T09:55:50.993Z,13.47
2022-09-22T09:56:55.303Z,13.27
2022-09-22T09:57:59.654Z,13.23
2022-09-22T09:59:04.130Z,12.85
2022-09-22T10:00:11.329Z,13.09
2022-09-22T10:01:14.827Z,13.29
2022-09-22T10:02:18.972Z,13.20
2022-09-22T10:03:23.431Z,12.91
2022-09-22T10:04:27.653Z,12.63
2022-09-22T10:05:32.061Z,12.67
2022-09-22T10:06:36.454Z,12.95
2022-09-22T10:07:40.530Z,13.12
2022-09-22T10:08:44.922Z,13.34
2022-09-22T10:09:49.180Z,13.51
2022-09-22T10:10:53.601Z,13.55
2022-09-22T10:11:57.854Z,12.82
2022-09-22T10:13:02.233Z,12.51
2022-09-22T10:14:06.585Z,12.82
2022-09-22T10:15:10.931Z,13.10
2022-09-22T10:16:15.395Z,13.27
2022-09-22T10:17:19.579Z,13.37
2022-09-22T10:18:23.987Z,13.38
2022-09-22T10:19:28.313Z,13.40
2022-09-22T10:20:32.700Z,13.52
2022-09-22T10:21:37.068Z,13.59
2022-09-22T10:22:41.561Z,13.60
2022-09-22T10:23:45.816Z,13.64
2022-09-22T10:24:50.070Z,13.74
2022-09-22T10:25:54.473Z,13.73
2022-09-22T10:27:00.383Z,13.70
2022-09-22T10:28:03.034Z,13.70
2022-09-22T10:29:07.420Z,13.71
2022-09-22T10:30:11.740Z,13.79
2022-09-22T10:31:16.236Z,13.88
2022-09-22T10:32:20.457Z,13.93
2022-09-22T10:33:24.714Z,13.72
2022-09-22T10:34:29.094Z,13.77
2022-09-22T10:35:33.475Z,13.86
2022-09-22T10:36:37.731Z,13.93
2022-09-22T10:37:42.160Z,13.98
2022-09-22T10:38:46.483Z,14.03
2022-09-22T10:39:50.703Z,14.10
2022-09-22T10:40:55.231Z,14.13
2022-09-22T10:41:59.385Z,14.17
2022-09-22T10:43:03.720Z,14.22
2022-09-22T10:44:27.666Z,14.17
2022-09-22T10:45:12.400Z,14.22
2022-09-22T10:46:16.846Z,13.63
2022-09-22T10:47:26.145Z,13.46
2022-09-22T10:48:25.521Z,13.66
2022-09-22T10:49:29.860Z,13.74
2022-09-22T10:50:34.247Z,13.71
2022-09-22T10:51:38.580Z,13.76
2022-09-22T10:52:42.839Z,13.71
2022-09-22T10:53:47.130Z,13.65
2022-09-22T10:54:51.428Z,13.72
2022-09-22T10:55:55.769Z,13.79
2022-09-22T10:57:00.039Z,13.78
2022-09-22T10:58:04.441Z,13.88
2022-09-22T10:59:08.777Z,13.79
2022-09-22T11:00:13.131Z,13.75
2022-09-22T11:01:17.386Z,13.82
2022-09-22T11:02:21.723Z,13.84
2022-09-22T11:03:26.026Z,13.64
2022-09-22T11:04:30.427Z,13.67
2022-09-22T11:05:34.684Z,13.86
2022-09-22T11:06:39.102Z,14.01
2022-09-22T11:07:43.369Z,13.93
2022-09-22T11:08:47.767Z,13.99
2022-09-22T11:09:52.035Z,14.12
2022-09-22T11:10:56.358Z,14.26
2022-09-22T11:12:00.768Z,14.37
2022-09-22T11:13:05.095Z,14.16
2022-09-22T11:14:09.500Z,14.24
2022-09-22T11:15:13.830Z,14.29
2022-09-22T11:16:18.239Z,14.24
2022-09-22T11:17:22.600Z,14.21
2022-09-22T11:18:26.952Z,14.23
2022-09-22T11:19:31.445Z,14.08
2022-09-22T11:20:35.730Z,13.94
2022-09-22T11:21:40.026Z,13.97
2022-09-22T11:22:44.450Z,13.92
2022-09-22T11:23:48.792Z,13.89
2022-09-22T11:24:53.072Z,13.65
2022-09-22T11:25:57.455Z,13.54
2022-09-22T11:27:01.849Z,13.19
2022-09-22T11:28:06.257Z,12.95
2022-09-22T11:29:10.407Z,13.11
2022-09-22T11:30:14.851Z,13.51
2022-09-22T11:31:19.219Z,13.82
2022-09-22T11:32:23.581Z,14.02
2022-09-22T11:33:27.904Z,14.20
2022-09-22T11:34:32.275Z,14.24
2022-09-22T11:35:36.637Z,13.84
2022-09-22T11:36:40.907Z,13.83
2022-09-22T11:37:45.218Z,13.82
2022-09-22T11:38:49.622Z,13.72
2022-09-22T11:39:53.873Z,13.65
2022-09-22T11:40:58.291Z,13.64
2022-09-22T11:42:02.653Z,13.79
2022-09-22T11:43:10.096Z,13.98
2022-09-22T11:44:13.353Z,13.64
2022-09-22T11:45:17.671Z,14.00
2022-09-22T11:46:22.167Z,14.09
2022-09-22T11:47:26.440Z,13.78
2022-09-22T11:48:30.820Z,13.91
2022-09-22T11:49:35.104Z,14.37
2022-09-22T11:50:39.493Z,14.71
2022-09-22T11:51:43.829Z,14.73
2022-09-22T11:52:48.240Z,14.82
2022-09-22T11:53:52.639Z,15.05
2022-09-22T11:55:00.556Z,15.13
2022-09-22T11:56:01.351Z,15.22
2022-09-22T11:57:05.670Z,15.18
2022-09-22T11:58:10.115Z,15.42
2022-09-22T11:59:14.426Z,15.34
2022-09-22T12:00:18.806Z,15.62
2022-09-22T12:01:23.112Z,15.63
2022-09-22T12:02:27.623Z,15.59
2022-09-22T12:03:32.142Z,15.52
2022-09-22T12:04:36.268Z,15.30
2022-09-22T12:05:40.671Z,15.23
2022-09-22T12:06:45.037Z,15.38
2022-09-22T12:07:49.353Z,15.44
2022-09-22T12:09:57.997Z,14.83
2022-09-22T12:11:02.466Z,14.69
2022-09-22T12:12:06.827Z,14.91
2022-09-22T12:13:11.306Z,15.07
2022-09-22T12:14:15.565Z,14.88
2022-09-22T12:15:20.136Z,14.97
2022-09-22T12:16:24.344Z,14.63
2022-09-22T12:17:28.728Z,14.58
2022-09-22T12:18:32.983Z,14.67
2022-09-22T12:19:37.511Z,14.94
2022-09-22T12:20:41.854Z,15.45
2022-09-22T12:21:46.226Z,15.69
2022-09-22T12:22:50.661Z,14.77
2022-09-22T12:23:55.072Z,14.77
2022-09-22T12:24:59.446Z,14.73
2022-09-22T12:26:03.837Z,15.07
2022-09-22T12:27:08.206Z,15.32
2022-09-22T12:28:12.597Z,15.48
2022-09-22T12:29:16.892Z,15.51
2022-09-22T12:30:21.279Z,14.49
2022-09-22T12:31:25.703Z,14.11
2022-09-22T12:32:33.024Z,13.77
2022-09-22T12:33:36.423Z,13.23
2022-09-22T12:34:40.845Z,13.36
2022-09-22T12:35:45.252Z,13.54
2022-09-22T12:36:49.551Z,13.65
2022-09-22T12:37:53.881Z,13.77
2022-09-22T12:38:58.235Z,13.81
2022-09-22T12:40:02.763Z,14.04
2022-09-22T12:41:06.991Z,14.45
2022-09-22T12:42:11.506Z,14.59
2022-09-22T12:43:15.908Z,14.88
2022-09-22T12:44:20.309Z,13.95
2022-09-22T12:45:24.769Z,13.93
2022-09-22T12:46:29.038Z,14.00
2022-09-22T12:47:33.403Z,14.72
2022-09-22T12:48:37.749Z,15.20
2022-09-22T12:49:42.105Z,14.89
2022-09-22T12:50:46.451Z,14.26
2022-09-22T12:51:50.828Z,14.25
2022-09-22T12:52:55.278Z,14.78
2022-09-22T12:53:59.715Z,14.66
2022-09-22T12:55:04.000Z,14.93
2022-09-22T12:56:08.442Z,14.89
2022-09-22T12:57:12.724Z,14.91
2022-09-22T12:58:17.227Z,14.69
2022-09-22T12:59:21.623Z,14.55
2022-09-22T13:00:27.923Z,14.60
2022-09-22T13:01:30.352Z,14.44
2022-09-22T13:02:34.585Z,14.49
2022-09-22T13:03:38.922Z,14.04
2022-09-22T13:04:43.281Z,14.01
2022-09-22T13:05:47.626Z,13.42
2022-09-22T13:06:51.942Z,13.09
2022-09-22T13:07:56.414Z,12.89
2022-09-22T13:09:14.793Z,13.09
2022-09-22T13:10:18.022Z,12.91
2022-09-22T13:11:22.345Z,13.01
2022-09-22T13:12:26.789Z,13.20
2022-09-22T13:13:31.126Z,13.27
2022-09-22T13:14:35.492Z,13.36
2022-09-22T13:15:39.789Z,13.34
2022-09-22T13:16:44.217Z,13.32
2022-09-22T13:17:48.640Z,13.25
2022-09-22T13:18:52.944Z,13.34
2022-09-22T13:19:57.324Z,13.21
2022-09-22T13:21:01.677Z,13.39
2022-09-22T13:22:09.016Z,13.50
2022-09-22T13:23:12.543Z,13.61
2022-09-22T13:24:18.151Z,13.42
2022-09-22T13:25:21.216Z,13.56
2022-09-22T13:26:25.645Z,13.64
2022-09-22T13:27:30.033Z,13.47
2022-09-22T13:28:34.369Z,13.50
2022-09-22T13:29:38.729Z,13.53
2022-09-22T13:30:43.329Z,13.42
2022-09-22T13:31:47.682Z,13.46
2022-09-22T13:32:52.193Z,13.03
2022-09-22T13:33:56.470Z,12.64
2022-09-22T13:35:00.899Z,12.85
2022-09-22T13:36:05.196Z,13.11
2022-09-22T13:37:09.675Z,13.62
2022-09-22T13:38:14.069Z,13.97
2022-09-22T13:39:18.454Z,14.22
2022-09-22T13:40:22.866Z,14.45
2022-09-22T13:41:27.169Z,14.48
2022-09-22T13:42:31.529Z,13.39
2022-09-22T13:43:35.885Z,13.20
2022-09-22T13:44:40.228Z,13.68
2022-09-22T13:45:44.623Z,13.98
2022-09-22T13:46:51.945Z,13.98
2022-09-22T13:47:55.434Z,14.25
2022-09-22T13:48:59.753Z,14.30
2022-09-22T13:50:04.240Z,14.49
2022-09-22T13:51:08.508Z,14.18
2022-09-22T13:52:12.922Z,14.30
2022-09-22T13:53:17.282Z,13.40
2022-09-22T13:54:21.626Z,13.85
2022-09-22T13:55:26.114Z,13.90
2022-09-22T13:56:30.392Z,14.12
2022-09-22T13:57:34.758Z,14.26
2022-09-22T13:58:39.115Z,14.17
2022-09-22T13:59:43.481Z,14.26
2022-09-22T14:01:11.495Z,14.34
2022-09-22T14:01:52.417Z,14.38
2022-09-22T14:02:56.654Z,14.25
2022-09-22T14:04:01.163Z,14.11